Richmond, VA (23229)

8:00 PM EDT on September 18, 2014 (GMT -0400)
Windsor Farms | Change Station
CLOSE
Current Station
Personal Weather Station
Location: Richmond, VA
Elevation: 242 ft
Nearby Weather Stations

Elev 242 ft 37.56 °N, 77.50 °W | Updated 10 seconds ago

Overcast
Overcast
68.9 °F
Feels Like 68.9 °F
N
0.0
Wind Variable Wind from ENE
Gusts 0.0 mph

Today
High -- | Low -- °F
--% Chance of Precip.
Yesterday
High -- | Low -- °F
Precip. -- in
6:54 AM 7:13 PM
Waning Crescent, 23% visible
Pressure 30.05 in
Visibility 10.0 miles
Clouds Scattered Clouds 4000 ft
Mostly Cloudy 7500 ft
Dew Point 62 °F
Humidity 78%
Rainfall 0.00 in
Snow Depth Not available.
UV 0 out of 12
Pollen 5.70 out of 12
Ozone Good
PM2.5 Good
Flu Activity Not available.
METAR KRIC 182354Z 10003KT 10SM SCT040 BKN075 19/16 A3003 RMK AO2 SLP174 60000 T01940156 10244 20194 53010

More Conditions Fewer Conditions

Pressure 30.05 in
Visibility 10.0 miles
Clouds Scattered Clouds 4000 ft
Mostly Cloudy 7500 ft
Dew Point 62 °F
Humidity 78%
Rainfall 0.00 in
Snow Depth Not available.
UV 0 out of 12
Pollen 5.70 out of 12
Ozone Good
PM2.5 Good
Flu Activity Not available.
METAR KRIC 182354Z 10003KT 10SM SCT040 BKN075 19/16 A3003 RMK AO2 SLP174 60000 T01940156 10244 20194 53010

More Conditions Fewer Conditions

10-Day Weather Forecast

Almanac

Astronomy

Sep. 18, 2014 Rise Set
Actual Time 6:54 AM EDT 7:13 PM EDT
Civil Twilight 6:28 AM EDT 7:39 PM EDT
Nautical Twilight 5:57 AM EDT 8:10 PM EDT
Astronomical Twilight 5:26 AM EDT 8:41 PM EDT
Moon 1:49 AM EDT (9/18) 3:58 PM EDT (9/18)
Length of Visible Light 13h 11m
Length of Day
12h 18m
Tomorrow will be 2m 24s shorter.
Waning Crescent, 23% of the Moon is Illuminated
Today
Waning Crescent
Sep 24
New
Oct 1
First Quarter
Oct 8
Full
Oct 15
Last Quarter

Today's Extremes

State Highs State Lows

Community

WunderPhotos

Upload Photos

1,754,500 photos uploaded!

WunderBlogs® & News

Nearby

Air Quality

  Air Quality AQ Index Pollutant
Yesterday Good
OZONE
Yesterday Good
PM2.5
Current Good
PM2.5
Current Good
OZONE
Thursday Good
PM2.5
Friday Good
PM2.5

Snow Depth

Station Depth Elevation
No new snow has been reported.

Earthquake Activity

City Distance Mag. Time & Date
No recent earthquake activity has been reported nearby.
Minimum magnitude displayed is 2.5.

Coastal Water Temperatures

Place Temperature
No Stations Reporting

Nearby Weather Stations